Terminal Aerodrome Forecast
Issued by NWS Portland, ME

Current Version | Previous Version | Text Only | Print | Product List | Glossary On
Versions: 1 2 3 4 5 6 7 8 9 10 11 12 13 14 15
000 FTUS41 KGYX 231729 TAFCON TAF KCON 231729Z 2318/2418 31015G25KT P6SM SKC FM240000 00000KT P6SM SCT250 FM240600 00000KT P6SM SCT120 BKN200 FM241400 19007KT P6SM SCT060 BKN080 OVC120=

USA.gov is the U.S. government's official web portal to all federal, state and local government web resources and services.